sensor_id;sensor_type;location;lat;lon;timestamp;pressure;altitude;pressure_sealevel;temperature;humidity
31483;BME280;18103;52.246;8.052;2022-12-18T00:01:15;101774.78;;;-5.18;82.46
31483;BME280;18103;52.246;8.052;2022-12-18T00:03:40;101785.19;;;-5.07;82.29
31483;BME280;18103;52.246;8.052;2022-12-18T00:06:06;101788.53;;;-5.17;82.71
31483;BME280;18103;52.246;8.052;2022-12-18T00:08:31;101781.66;;;-5.17;82.88
31483;BME280;18103;52.246;8.052;2022-12-18T00:11:06;101769.75;;;-5.05;82.31
31483;BME280;18103;52.246;8.052;2022-12-18T00:13:32;101769.00;;;-4.96;81.74
31483;BME280;18103;52.246;8.052;2022-12-18T00:16:02;101756.06;;;-5.01;82.03
31483;BME280;18103;52.246;8.052;2022-12-18T00:18:28;101762.03;;;-5.04;81.65
31483;BME280;18103;52.246;8.052;2022-12-18T00:20:53;101765.50;;;-5.00;81.81
31483;BME280;18103;52.246;8.052;2022-12-18T00:23:19;101774.03;;;-5.06;81.48
31483;BME280;18103;52.246;8.052;2022-12-18T00:25:44;101775.72;;;-5.08;81.44
31483;BME280;18103;52.246;8.052;2022-12-18T00:28:10;101774.91;;;-5.05;81.40
31483;BME280;18103;52.246;8.052;2022-12-18T00:30:35;101774.03;;;-5.06;81.04
31483;BME280;18103;52.246;8.052;2022-12-18T00:33:00;101772.38;;;-5.02;80.78
31483;BME280;18103;52.246;8.052;2022-12-18T00:35:26;101769.81;;;-4.99;80.85
31483;BME280;18103;52.246;8.052;2022-12-18T00:37:51;101771.50;;;-5.01;80.70
31483;BME280;18103;52.246;8.052;2022-12-18T00:40:16;101778.47;;;-4.92;81.00
31483;BME280;18103;52.246;8.052;2022-12-18T00:42:42;101772.41;;;-4.99;81.54
31483;BME280;18103;52.246;8.052;2022-12-18T00:45:24;101777.56;;;-4.97;81.14
31483;BME280;18103;52.246;8.052;2022-12-18T00:47:50;101772.38;;;-5.01;81.01
31483;BME280;18103;52.246;8.052;2022-12-18T00:50:16;101767.28;;;-4.96;81.28
31483;BME280;18103;52.246;8.052;2022-12-18T00:52:41;101764.72;;;-4.90;80.99
31483;BME280;18103;52.246;8.052;2022-12-18T00:55:08;101768.25;;;-4.80;80.73
31483;BME280;18103;52.246;8.052;2022-12-18T00:57:33;101771.72;;;-4.79;80.50
31483;BME280;18103;52.246;8.052;2022-12-18T00:59:59;101768.13;;;-4.95;80.71
31483;BME280;18103;52.246;8.052;2022-12-18T01:02:24;101756.06;;;-5.03;80.73
31483;BME280;18103;52.246;8.052;2022-12-18T01:04:50;101762.16;;;-4.91;80.69
31483;BME280;18103;52.246;8.052;2022-12-18T01:07:15;101756.13;;;-4.93;80.41
31483;BME280;18103;52.246;8.052;2022-12-18T01:09:40;101755.22;;;-4.99;80.66
31483;BME280;18103;52.246;8.052;2022-12-18T01:12:06;101756.97;;;-4.97;80.70
31483;BME280;18103;52.246;8.052;2022-12-18T01:14:31;101758.75;;;-4.87;80.38
31483;BME280;18103;52.246;8.052;2022-12-18T01:16:57;101760.47;;;-4.88;80.27
31483;BME280;18103;52.246;8.052;2022-12-18T01:19:22;101761.31;;;-4.89;80.35
31483;BME280;18103;52.246;8.052;2022-12-18T01:21:49;101765.63;;;-4.86;80.65
31483;BME280;18103;52.246;8.052;2022-12-18T01:24:14;101765.66;;;-4.83;80.88
31483;BME280;18103;52.246;8.052;2022-12-18T01:26:40;101772.47;;;-4.88;80.84
31483;BME280;18103;52.246;8.052;2022-12-18T01:29:05;101762.25;;;-4.79;80.65
31483;BME280;18103;52.246;8.052;2022-12-18T01:31:32;101766.50;;;-4.86;80.48
31483;BME280;18103;52.246;8.052;2022-12-18T01:34:00;101763.91;;;-4.86;80.70
31483;BME280;18103;52.246;8.052;2022-12-18T01:36:31;101763.16;;;-4.74;80.71
31483;BME280;18103;52.246;8.052;2022-12-18T01:39:01;101760.63;;;-4.68;80.19
31483;BME280;18103;52.246;8.052;2022-12-18T01:41:28;101763.25;;;-4.61;80.09
31483;BME280;18103;52.246;8.052;2022-12-18T01:47:23;101767.59;;;-4.57;80.22
31483;BME280;18103;52.246;8.052;2022-12-18T01:49:50;101773.59;;;-4.55;80.19
31483;BME280;18103;52.246;8.052;2022-12-18T01:52:17;101772.75;;;-4.54;80.37
31483;BME280;18103;52.246;8.052;2022-12-18T01:54:43;101769.28;;;-4.59;80.73
31483;BME280;18103;52.246;8.052;2022-12-18T01:57:09;101779.59;;;-4.56;80.68
31483;BME280;18103;52.246;8.052;2022-12-18T01:59:35;101782.25;;;-4.45;80.01
31483;BME280;18103;52.246;8.052;2022-12-18T02:02:02;101778.75;;;-4.54;79.86
31483;BME280;18103;52.246;8.052;2022-12-18T02:04:28;101770.19;;;-4.54;79.80
31483;BME280;18103;52.246;8.052;2022-12-18T02:09:47;101776.16;;;-4.58;79.67
31483;BME280;18103;52.246;8.052;2022-12-18T02:12:20;101774.28;;;-4.78;79.84
31483;BME280;18103;52.246;8.052;2022-12-18T02:17:25;101770.66;;;-5.02;80.78
31483;BME280;18103;52.246;8.052;2022-12-18T02:20:22;101777.56;;;-4.96;80.09
31483;BME280;18103;52.246;8.052;2022-12-18T02:28:41;101780.81;;;-5.16;80.38
31483;BME280;18103;52.246;8.052;2022-12-18T02:31:11;101780.81;;;-5.16;80.14
31483;BME280;18103;52.246;8.052;2022-12-18T02:33:39;101774.63;;;-5.35;80.91
31483;BME280;18103;52.246;8.052;2022-12-18T02:36:05;101766.06;;;-5.32;80.53
31483;BME280;18103;52.246;8.052;2022-12-18T02:38:33;101761.59;;;-5.48;81.16
31483;BME280;18103;52.246;8.052;2022-12-18T02:40:59;101760.91;;;-5.35;80.64
31483;BME280;18103;52.246;8.052;2022-12-18T02:43:25;101754.16;;;-5.24;79.65
31483;BME280;18103;52.246;8.052;2022-12-18T02:45:54;101755.91;;;-5.17;79.39
31483;BME280;18103;52.246;8.052;2022-12-18T02:48:25;101755.94;;;-5.15;79.24
31483;BME280;18103;52.246;8.052;2022-12-18T02:51:16;101755.06;;;-5.19;79.45
31483;BME280;18103;52.246;8.052;2022-12-18T02:53:53;101761.06;;;-5.18;79.07
31483;BME280;18103;52.246;8.052;2022-12-18T02:56:28;101757.63;;;-5.20;79.65
31483;BME280;18103;52.246;8.052;2022-12-18T02:59:07;101752.50;;;-5.19;79.80
31483;BME280;18103;52.246;8.052;2022-12-18T03:04:14;101752.41;;;-5.23;79.96
31483;BME280;18103;52.246;8.052;2022-12-18T03:06:46;101753.28;;;-5.24;79.76
31483;BME280;18103;52.246;8.052;2022-12-18T03:09:21;101755.06;;;-5.17;79.45
31483;BME280;18103;52.246;8.052;2022-12-18T03:11:58;101755.06;;;-5.17;79.69
31483;BME280;18103;52.246;8.052;2022-12-18T03:14:54;101753.28;;;-5.24;79.45
31483;BME280;18103;52.246;8.052;2022-12-18T03:17:23;101747.94;;;-5.44;79.96
31483;BME280;18103;52.246;8.052;2022-12-18T03:19:52;101749.53;;;-5.56;80.32
31483;BME280;18103;52.246;8.052;2022-12-18T03:22:20;101742.53;;;-5.69;80.40
31483;BME280;18103;52.246;8.052;2022-12-18T03:24:47;101755.50;;;-5.58;80.64
31483;BME280;18103;52.246;8.052;2022-12-18T03:27:18;101752.88;;;-5.64;80.03
31483;BME280;18103;52.246;8.052;2022-12-18T03:29:51;101757.25;;;-5.54;79.72
31483;BME280;18103;52.246;8.052;2022-12-18T03:32:29;101762.50;;;-5.45;79.79
31483;BME280;18103;52.246;8.052;2022-12-18T03:34:58;101767.63;;;-5.48;79.60
31483;BME280;18103;52.246;8.052;2022-12-18T03:37:26;101770.91;;;-5.61;80.07
31483;BME280;18103;52.246;8.052;2022-12-18T03:39:51;101771.81;;;-5.58;79.61
31483;BME280;18103;52.246;8.052;2022-12-18T03:42:27;101759.81;;;-5.57;79.89
31483;BME280;18103;52.246;8.052;2022-12-18T03:45:08;101759.94;;;-5.46;79.25
31483;BME280;18103;52.246;8.052;2022-12-18T03:53:33;101749.94;;;-5.95;80.92
31483;BME280;18103;52.246;8.052;2022-12-18T03:56:00;101748.19;;;-5.99;80.75
31483;BME280;18103;52.246;8.052;2022-12-18T03:58:28;101748.97;;;-6.08;80.49
31483;BME280;18103;52.246;8.052;2022-12-18T04:01:00;101742.03;;;-6.14;80.77
31483;BME280;18103;52.246;8.052;2022-12-18T04:03:28;101747.09;;;-6.17;80.49
31483;BME280;18103;52.246;8.052;2022-12-18T04:05:55;101749.66;;;-6.17;80.78
31483;BME280;18103;52.246;8.052;2022-12-18T04:08:23;101751.38;;;-6.17;80.69
31483;BME280;18103;52.246;8.052;2022-12-18T04:10:49;101748.75;;;-6.24;80.49
31483;BME280;18103;52.246;8.052;2022-12-18T04:13:22;101750.47;;;-6.21;80.56
31483;BME280;18103;52.246;8.052;2022-12-18T04:15:48;101755.78;;;-6.07;80.13
31483;BME280;18103;52.246;8.052;2022-12-18T04:18:13;101758.25;;;-6.16;80.19
31483;BME280;18103;52.246;8.052;2022-12-18T04:20:39;101755.69;;;-6.16;79.67
31483;BME280;18103;52.246;8.052;2022-12-18T04:23:04;101758.94;;;-6.28;80.55
31483;BME280;18103;52.246;8.052;2022-12-18T04:25:29;101760.59;;;-6.33;80.20
31483;BME280;18103;52.246;8.052;2022-12-18T04:27:55;101763.88;;;-6.44;80.12
31483;BME280;18103;52.246;8.052;2022-12-18T04:30:20;101767.19;;;-6.51;80.26
31483;BME280;18103;52.246;8.052;2022-12-18T04:32:45;101761.94;;;-6.59;80.07
31483;BME280;18103;52.246;8.052;2022-12-18T04:35:11;101761.19;;;-6.53;79.73
31483;BME280;18103;52.246;8.052;2022-12-18T04:37:37;101763.69;;;-6.56;79.92
31483;BME280;18103;52.246;8.052;2022-12-18T04:40:04;101767.00;;;-6.62;79.76
31483;BME280;18103;52.246;8.052;2022-12-18T04:42:29;101772.94;;;-6.66;79.65
31483;BME280;18103;52.246;8.052;2022-12-18T04:44:55;101766.06;;;-6.70;79.87
31483;BME280;18103;52.246;8.052;2022-12-18T04:47:20;101768.53;;;-6.75;79.90
31483;BME280;18103;52.246;8.052;2022-12-18T04:49:45;101770.34;;;-6.69;80.28
31483;BME280;18103;52.246;8.052;2022-12-18T04:52:11;101759.38;;;-6.59;79.87
31483;BME280;18103;52.246;8.052;2022-12-18T04:54:36;101750.78;;;-6.61;80.05
31483;BME280;18103;52.246;8.052;2022-12-18T04:57:01;101755.38;;;-6.40;79.80
31483;BME280;18103;52.246;8.052;2022-12-18T04:59:27;101750.38;;;-6.29;79.76
31483;BME280;18103;52.246;8.052;2022-12-18T05:01:52;101755.63;;;-6.21;79.76
31483;BME280;18103;52.246;8.052;2022-12-18T05:04:18;101753.16;;;-6.15;79.52
31483;BME280;18103;52.246;8.052;2022-12-18T05:06:43;101747.16;;;-6.14;79.83
31483;BME280;18103;52.246;8.052;2022-12-18T05:09:09;101741.16;;;-6.13;79.30
31483;BME280;18103;52.246;8.052;2022-12-18T05:11:34;101754.00;;;-6.14;79.73
31483;BME280;18103;52.246;8.052;2022-12-18T05:13:59;101743.81;;;-6.10;79.26
31483;BME280;18103;52.246;8.052;2022-12-18T05:16:25;101739.56;;;-6.05;79.50
31483;BME280;18103;52.246;8.052;2022-12-18T05:18:50;101742.13;;;-6.06;79.66
31483;BME280;18103;52.246;8.052;2022-12-18T05:21:15;101739.50;;;-6.11;79.72
31483;BME280;18103;52.246;8.052;2022-12-18T05:23:41;101748.13;;;-6.06;79.36
31483;BME280;18103;52.246;8.052;2022-12-18T05:26:07;101738.50;;;-6.22;80.01
31483;BME280;18103;52.246;8.052;2022-12-18T05:28:34;101725.66;;;-6.21;79.62
31483;BME280;18103;52.246;8.052;2022-12-18T05:31:03;101735.97;;;-6.17;79.67
31483;BME280;18103;52.246;8.052;2022-12-18T05:33:30;101742.63;;;-6.33;80.53
31483;BME280;18103;52.246;8.052;2022-12-18T05:36:01;101734.84;;;-6.38;80.12
31483;BME280;18103;52.246;8.052;2022-12-18T05:38:28;101742.44;;;-6.47;80.58
31483;BME280;18103;52.246;8.052;2022-12-18T05:40:57;101745.84;;;-6.47;79.97
31483;BME280;18103;52.246;8.052;2022-12-18T05:43:24;101745.69;;;-6.58;80.40
31483;BME280;18103;52.246;8.052;2022-12-18T05:45:50;101743.13;;;-6.58;80.68
31483;BME280;18103;52.246;8.052;2022-12-18T05:48:16;101742.34;;;-6.52;80.22
31483;BME280;18103;52.246;8.052;2022-12-18T05:50:45;101745.75;;;-6.55;80.14
31483;BME280;18103;52.246;8.052;2022-12-18T05:53:14;101755.13;;;-6.57;80.09
31483;BME280;18103;52.246;8.052;2022-12-18T05:55:41;101755.09;;;-6.58;80.09
31483;BME280;18103;52.246;8.052;2022-12-18T05:58:08;101754.16;;;-6.63;80.16
31483;BME280;18103;52.246;8.052;2022-12-18T06:00:35;101763.50;;;-6.70;80.40
31483;BME280;18103;52.246;8.052;2022-12-18T06:03:01;101765.38;;;-6.57;79.78
31483;BME280;18103;52.246;8.052;2022-12-18T06:05:27;101779.03;;;-6.59;79.83
31483;BME280;18103;52.246;8.052;2022-12-18T06:07:52;101782.47;;;-6.60;79.45
31483;BME280;18103;52.246;8.052;2022-12-18T06:10:18;101780.66;;;-6.66;79.92
31483;BME280;18103;52.246;8.052;2022-12-18T06:12:43;101784.88;;;-6.69;79.90
31483;BME280;18103;52.246;8.052;2022-12-18T06:15:09;101783.09;;;-6.74;80.38
31483;BME280;18103;52.246;8.052;2022-12-18T06:17:34;101778.03;;;-6.69;80.07
31483;BME280;18103;52.246;8.052;2022-12-18T06:20:00;101786.53;;;-6.72;80.23
31483;BME280;18103;52.246;8.052;2022-12-18T06:22:26;101787.34;;;-6.76;80.18
31483;BME280;18103;52.246;8.052;2022-12-18T06:24:52;101786.44;;;-6.79;80.38
31483;BME280;18103;52.246;8.052;2022-12-18T06:27:18;101801.84;;;-6.79;79.91
31483;BME280;18103;52.246;8.052;2022-12-18T06:29:43;101804.38;;;-6.82;79.67
31483;BME280;18103;52.246;8.052;2022-12-18T06:32:09;101798.09;;;-6.98;80.03
31483;BME280;18103;52.246;8.052;2022-12-18T06:34:37;101795.44;;;-7.03;80.22
31483;BME280;18103;52.246;8.052;2022-12-18T06:37:05;101806.56;;;-7.02;80.38
31483;BME280;18103;52.246;8.052;2022-12-18T06:39:31;101807.59;;;-6.93;80.26
31483;BME280;18103;52.246;8.052;2022-12-18T06:41:56;101810.16;;;-6.93;80.18
31483;BME280;18103;52.246;8.052;2022-12-18T06:44:22;101808.44;;;-6.94;80.30
31483;BME280;18103;52.246;8.052;2022-12-18T06:46:47;101810.03;;;-7.00;80.39
31483;BME280;18103;52.246;8.052;2022-12-18T06:49:13;101810.94;;;-6.97;79.96
31483;BME280;18103;52.246;8.052;2022-12-18T06:51:38;101810.78;;;-7.08;80.44
31483;BME280;18103;52.246;8.052;2022-12-18T06:54:04;101819.41;;;-7.01;80.40
31483;BME280;18103;52.246;8.052;2022-12-18T06:56:29;101817.59;;;-7.08;80.48
31483;BME280;18103;52.246;8.052;2022-12-18T06:58:55;101816.66;;;-7.13;80.27
31483;BME280;18103;52.246;8.052;2022-12-18T07:01:21;101814.09;;;-7.13;80.69
31483;BME280;18103;52.246;8.052;2022-12-18T07:03:51;101812.47;;;-7.07;80.53
31483;BME280;18103;52.246;8.052;2022-12-18T07:06:20;101809.84;;;-7.11;80.37
31483;BME280;18103;52.246;8.052;2022-12-18T07:08:46;101803.06;;;-7.09;80.26
31483;BME280;18103;52.246;8.052;2022-12-18T07:11:12;101799.56;;;-7.11;80.09
31483;BME280;18103;52.246;8.052;2022-12-18T07:13:38;101797.97;;;-7.06;80.26
31483;BME280;18103;52.246;8.052;2022-12-18T07:16:14;101794.41;;;-7.13;80.40
31483;BME280;18103;52.246;8.052;2022-12-18T07:18:40;101792.69;;;-7.14;80.04
31483;BME280;18103;52.246;8.052;2022-12-18T07:21:11;101796.91;;;-7.17;80.74
31483;BME280;18103;52.246;8.052;2022-12-18T07:23:36;101796.06;;;-7.15;80.60
31483;BME280;18103;52.246;8.052;2022-12-18T07:26:07;101792.69;;;-7.14;80.30
31483;BME280;18103;52.246;8.052;2022-12-18T07:28:33;101798.63;;;-7.16;80.63
31483;BME280;18103;52.246;8.052;2022-12-18T07:31:03;101797.75;;;-7.17;80.29
31483;BME280;18103;52.246;8.052;2022-12-18T07:33:28;101791.00;;;-7.13;80.39
31483;BME280;18103;52.246;8.052;2022-12-18T07:35:54;101805.63;;;-7.09;80.21
31483;BME280;18103;52.246;8.052;2022-12-18T07:38:19;101798.84;;;-7.04;80.19
31483;BME280;18103;52.246;8.052;2022-12-18T07:40:44;101799.63;;;-7.08;80.39
31483;BME280;18103;52.246;8.052;2022-12-18T07:43:10;101795.25;;;-7.14;80.40
31483;BME280;18103;52.246;8.052;2022-12-18T07:45:35;101798.78;;;-7.07;80.03
31483;BME280;18103;52.246;8.052;2022-12-18T07:48:01;101795.38;;;-7.08;80.48
31483;BME280;18103;52.246;8.052;2022-12-18T07:50:26;101793.69;;;-7.06;80.07
31483;BME280;18103;52.246;8.052;2022-12-18T07:52:52;101791.09;;;-7.07;79.98
31483;BME280;18103;52.246;8.052;2022-12-18T07:55:17;101787.06;;;-6.93;79.66
31483;BME280;18103;52.246;8.052;2022-12-18T07:57:42;101792.13;;;-6.97;79.48
31483;BME280;18103;52.246;8.052;2022-12-18T08:00:08;101779.16;;;-7.05;80.36
31483;BME280;18103;52.246;8.052;2022-12-18T08:02:34;101775.94;;;-6.93;79.83
31483;BME280;18103;52.246;8.052;2022-12-18T08:04:59;101764.84;;;-6.92;79.58
31483;BME280;18103;52.246;8.052;2022-12-18T08:07:24;101764.88;;;-6.89;79.76
31483;BME280;18103;52.246;8.052;2022-12-18T08:09:50;101767.38;;;-6.94;80.13
31483;BME280;18103;52.246;8.052;2022-12-18T08:12:15;101763.06;;;-6.96;80.46
31483;BME280;18103;52.246;8.052;2022-12-18T08:14:42;101759.09;;;-6.76;80.03
31483;BME280;18103;52.246;8.052;2022-12-18T08:17:07;101761.03;;;-6.62;79.90
31483;BME280;18103;52.246;8.052;2022-12-18T08:19:33;101751.72;;;-6.56;79.68
31483;BME280;18103;52.246;8.052;2022-12-18T08:21:58;101749.38;;;-6.40;79.94
31483;BME280;18103;52.246;8.052;2022-12-18T08:24:23;101746.91;;;-6.31;80.64
31483;BME280;18103;52.246;8.052;2022-12-18T08:26:49;101746.19;;;-6.22;80.79
31483;BME280;18103;52.246;8.052;2022-12-18T08:29:15;101736.91;;;-6.12;81.20
31483;BME280;18103;52.246;8.052;2022-12-18T08:31:41;101738.75;;;-6.02;80.90
31483;BME280;18103;52.246;8.052;2022-12-18T08:34:07;101747.41;;;-5.91;80.75
31483;BME280;18103;52.246;8.052;2022-12-18T08:36:33;101754.34;;;-5.85;80.80
31483;BME280;18103;52.246;8.052;2022-12-18T08:38:58;101767.28;;;-5.77;80.70
31483;BME280;18103;52.246;8.052;2022-12-18T08:41:23;101769.75;;;-5.85;80.88
31483;BME280;18103;52.246;8.052;2022-12-18T08:43:49;101774.13;;;-5.79;80.93
31483;BME280;18103;52.246;8.052;2022-12-18T08:46:40;101775.16;;;-5.65;80.24
31483;BME280;18103;52.246;8.052;2022-12-18T08:49:07;101779.59;;;-5.50;79.90
31483;BME280;18103;52.246;8.052;2022-12-18T08:51:33;101778.91;;;-5.37;80.39
31483;BME280;18103;52.246;8.052;2022-12-18T08:53:58;101778.94;;;-5.30;80.36
31483;BME280;18103;52.246;8.052;2022-12-18T08:56:24;101760.22;;;-5.16;79.96
31483;BME280;18103;52.246;8.052;2022-12-18T08:58:54;101750.03;;;-5.05;79.81
31483;BME280;18103;52.246;8.052;2022-12-18T09:01:20;101738.13;;;-4.93;79.37
31483;BME280;18103;52.246;8.052;2022-12-18T09:03:49;101735.56;;;-4.92;79.66
31483;BME280;18103;52.246;8.052;2022-12-18T09:06:16;101737.31;;;-4.86;79.58
31483;BME280;18103;52.246;8.052;2022-12-18T09:08:43;101747.66;;;-4.80;79.76
31483;BME280;18103;52.246;8.052;2022-12-18T09:11:34;101739.16;;;-4.71;79.24
31483;BME280;18103;52.246;8.052;2022-12-18T09:14:00;101744.31;;;-4.68;79.04
31483;BME280;18103;52.246;8.052;2022-12-18T09:16:26;101745.22;;;-4.61;79.01
31483;BME280;18103;52.246;8.052;2022-12-18T09:18:54;101741.81;;;-4.57;78.92
31483;BME280;18103;52.246;8.052;2022-12-18T09:21:25;101746.09;;;-4.55;78.86
31483;BME280;18103;52.246;8.052;2022-12-18T09:23:52;101751.34;;;-4.44;78.58
31483;BME280;18103;52.246;8.052;2022-12-18T09:26:18;101749.59;;;-4.51;78.81
31483;BME280;18103;52.246;8.052;2022-12-18T09:28:44;101747.91;;;-4.46;78.81
31483;BME280;18103;52.246;8.052;2022-12-18T09:31:13;101762.50;;;-4.45;78.33
31483;BME280;18103;52.246;8.052;2022-12-18T09:33:38;101753.91;;;-4.44;78.41
31483;BME280;18103;52.246;8.052;2022-12-18T09:36:06;101755.66;;;-4.40;78.39
31483;BME280;18103;52.246;8.052;2022-12-18T09:38:35;101767.72;;;-4.33;78.57
31483;BME280;18103;52.246;8.052;2022-12-18T09:46:39;101767.75;;;-4.30;78.95
31483;BME280;18103;52.246;8.052;2022-12-18T09:49:12;101765.22;;;-4.22;79.14
31483;BME280;18103;52.246;8.052;2022-12-18T09:51:43;101760.97;;;-4.15;78.62
31483;BME280;18103;52.246;8.052;2022-12-18T09:54:35;101756.66;;;-4.15;78.82
31483;BME280;18103;52.246;8.052;2022-12-18T09:57:03;101757.59;;;-4.00;78.38
31483;BME280;18103;52.246;8.052;2022-12-18T09:59:36;101765.38;;;-3.96;78.58
31483;BME280;18103;52.246;8.052;2022-12-18T10:02:17;101760.22;;;-3.85;78.30
31483;BME280;18103;52.246;8.052;2022-12-18T10:04:43;101747.38;;;-3.77;78.15
31483;BME280;18103;52.246;8.052;2022-12-18T10:07:17;101734.53;;;-3.68;78.13
31483;BME280;18103;52.246;8.052;2022-12-18T10:10:01;101730.22;;;-3.61;78.45
31483;BME280;18103;52.246;8.052;2022-12-18T10:20:55;101704.47;;;-3.36;77.72
31483;BME280;18103;52.246;8.052;2022-12-18T10:26:10;101677.78;;;-3.11;77.73
31483;BME280;18103;52.246;8.052;2022-12-18T10:28:38;101677.81;;;-3.09;78.19
31483;BME280;18103;52.246;8.052;2022-12-18T10:31:15;101691.56;;;-2.93;77.93
31483;BME280;18103;52.246;8.052;2022-12-18T10:33:42;101694.16;;;-2.95;78.95
31483;BME280;18103;52.246;8.052;2022-12-18T10:36:10;101695.84;;;-2.84;78.63
31483;BME280;18103;52.246;8.052;2022-12-18T10:38:36;101706.22;;;-2.78;77.90
31483;BME280;18103;52.246;8.052;2022-12-18T10:43:39;101694.97;;;-2.68;78.51
31483;BME280;18103;52.246;8.052;2022-12-18T10:48:56;101674.34;;;-2.74;77.20
31483;BME280;18103;52.246;8.052;2022-12-18T10:51:32;101660.53;;;-2.65;77.56
31483;BME280;18103;52.246;8.052;2022-12-18T10:54:02;101663.09;;;-2.61;77.93
31483;BME280;18103;52.246;8.052;2022-12-18T10:56:30;101655.34;;;-2.64;77.45
31483;BME280;18103;52.246;8.052;2022-12-18T10:59:08;101642.41;;;-2.54;76.98
31483;BME280;18103;52.246;8.052;2022-12-18T11:01:55;101643.28;;;-2.57;77.90
31483;BME280;18103;52.246;8.052;2022-12-18T11:04:25;101645.81;;;-2.42;77.25
31483;BME280;18103;52.246;8.052;2022-12-18T11:06:54;101641.47;;;-2.38;77.27
31483;BME280;18103;52.246;8.052;2022-12-18T11:09:23;101631.13;;;-2.33;77.07
31483;BME280;18103;52.246;8.052;2022-12-18T11:11:51;101631.97;;;-2.25;77.21
31483;BME280;18103;52.246;8.052;2022-12-18T11:14:24;101625.06;;;-2.26;77.69
31483;BME280;18103;52.246;8.052;2022-12-18T11:16:51;101637.09;;;-2.20;77.53
31483;BME280;18103;52.246;8.052;2022-12-18T11:21:46;101632.78;;;-2.20;77.55
31483;BME280;18103;52.246;8.052;2022-12-18T11:24:20;101634.47;;;-2.10;77.14
31483;BME280;18103;52.246;8.052;2022-12-18T11:26:47;101625.84;;;-2.13;77.33
31483;BME280;18103;52.246;8.052;2022-12-18T11:29:19;101613.81;;;-2.17;76.42
31483;BME280;18103;52.246;8.052;2022-12-18T11:31:48;101614.69;;;-2.15;76.28
31483;BME280;18103;52.246;8.052;2022-12-18T11:34:31;101606.03;;;-2.11;75.92
31483;BME280;18103;52.246;8.052;2022-12-18T11:36:58;101614.59;;;-2.01;76.35
31483;BME280;18103;52.246;8.052;2022-12-18T11:39:45;101604.22;;;-1.97;75.57
31483;BME280;18103;52.246;8.052;2022-12-18T11:50:20;101594.69;;;-1.88;76.12
31483;BME280;18103;52.246;8.052;2022-12-18T11:52:47;101578.28;;;-1.89;75.86
31483;BME280;18103;52.246;8.052;2022-12-18T11:55:14;101579.13;;;-1.87;76.10
31483;BME280;18103;52.246;8.052;2022-12-18T11:58:03;101573.94;;;-1.85;75.86
31483;BME280;18103;52.246;8.052;2022-12-18T12:00:36;101577.31;;;-1.74;75.95
31483;BME280;18103;52.246;8.052;2022-12-18T12:08:27;101563.47;;;-1.70;77.21
31483;BME280;18103;52.246;8.052;2022-12-18T12:21:49;101554.69;;;-1.49;76.19
31483;BME280;18103;52.246;8.052;2022-12-18T12:24:24;101552.09;;;-1.49;76.96
31483;BME280;18103;52.246;8.052;2022-12-18T12:30:05;101545.09;;;-1.39;75.66
31483;BME280;18103;52.246;8.052;2022-12-18T12:38:21;101555.41;;;-1.31;75.84
31483;BME280;18103;52.246;8.052;2022-12-18T12:41:00;101551.06;;;-1.31;76.20
31483;BME280;18103;52.246;8.052;2022-12-18T12:43:45;101544.25;;;-1.40;75.93
31483;BME280;18103;52.246;8.052;2022-12-18T12:46:16;101543.38;;;-1.37;76.20
31483;BME280;18103;52.246;8.052;2022-12-18T12:51:25;101522.59;;;-1.34;76.42
31483;BME280;18103;52.246;8.052;2022-12-18T12:53:52;101514.09;;;-1.48;76.51
31483;BME280;18103;52.246;8.052;2022-12-18T12:56:20;101504.66;;;-1.51;77.01
31483;BME280;18103;52.246;8.052;2022-12-18T13:07:03;101482.34;;;-1.66;77.33
31483;BME280;18103;52.246;8.052;2022-12-18T13:09:31;101488.16;;;-1.42;77.00
31483;BME280;18103;52.246;8.052;2022-12-18T13:12:09;101491.56;;;-1.39;76.70
31483;BME280;18103;52.246;8.052;2022-12-18T13:14:53;101482.28;;;-1.61;77.31
31483;BME280;18103;52.246;8.052;2022-12-18T13:19:51;101471.69;;;-1.36;76.24
31483;BME280;18103;52.246;8.052;2022-12-18T13:22:31;101468.22;;;-1.32;76.13
31483;BME280;18103;52.246;8.052;2022-12-18T13:24:57;101461.47;;;-1.50;76.70
31483;BME280;18103;52.246;8.052;2022-12-18T13:40:55;101451.19;;;-1.58;74.49
31483;BME280;18103;52.246;8.052;2022-12-18T13:46:00;101453.78;;;-1.55;74.65
31483;BME280;18103;52.246;8.052;2022-12-18T13:48:27;101444.19;;;-1.47;73.91
31483;BME280;18103;52.246;8.052;2022-12-18T13:50:57;101437.34;;;-1.52;74.28
31483;BME280;18103;52.246;8.052;2022-12-18T13:53:44;101433.03;;;-1.52;74.26
31483;BME280;18103;52.246;8.052;2022-12-18T13:56:24;101430.47;;;-1.58;74.39
31483;BME280;18103;52.246;8.052;2022-12-18T14:01:55;101415.91;;;-1.65;73.65
31483;BME280;18103;52.246;8.052;2022-12-18T14:06:51;101427.16;;;-1.66;73.36
31483;BME280;18103;52.246;8.052;2022-12-18T14:09:23;101427.00;;;-1.52;73.16
31483;BME280;18103;52.246;8.052;2022-12-18T14:11:50;101419.25;;;-1.57;73.09
31483;BME280;18103;52.246;8.052;2022-12-18T14:14:17;101439.09;;;-1.56;73.23
31483;BME280;18103;52.246;8.052;2022-12-18T14:16:43;101426.09;;;-1.51;73.10
31483;BME280;18103;52.246;8.052;2022-12-18T14:19:15;101419.16;;;-1.46;72.69
31483;BME280;18103;52.246;8.052;2022-12-18T14:21:47;101408.84;;;-1.49;72.80
31483;BME280;18103;52.246;8.052;2022-12-18T14:26:42;101416.72;;;-1.62;72.65
31483;BME280;18103;52.246;8.052;2022-12-18T14:29:25;101406.28;;;-1.52;72.91
31483;BME280;18103;52.246;8.052;2022-12-18T14:32:14;101402.91;;;-1.59;72.51
31483;BME280;18103;52.246;8.052;2022-12-18T14:34:43;101405.50;;;-1.59;72.53
31483;BME280;18103;52.246;8.052;2022-12-18T14:37:14;101414.09;;;-1.59;71.68
31483;BME280;18103;52.246;8.052;2022-12-18T14:39:40;101404.53;;;-1.52;72.16
31483;BME280;18103;52.246;8.052;2022-12-18T14:42:05;101405.38;;;-1.47;71.97
31483;BME280;18103;52.246;8.052;2022-12-18T14:44:31;101397.59;;;-1.47;72.29
31483;BME280;18103;52.246;8.052;2022-12-18T14:46:56;101389.00;;;-1.52;71.88
31483;BME280;18103;52.246;8.052;2022-12-18T14:49:29;101369.25;;;-1.59;71.55
31483;BME280;18103;52.246;8.052;2022-12-18T14:51:57;101375.25;;;-1.57;72.02
31483;BME280;18103;52.246;8.052;2022-12-18T14:54:25;101374.28;;;-1.47;71.41
31483;BME280;18103;52.246;8.052;2022-12-18T14:57:32;101374.28;;;-1.45;71.66